createdAt,value
2018-08-04T00:00:30.971Z,21.90
2018-08-04T00:03:00.878Z,21.90
2018-08-04T00:05:31.398Z,21.90
2018-08-04T00:08:00.560Z,21.90
2018-08-04T00:10:29.733Z,21.80
2018-08-04T00:12:58.852Z,21.80
2018-08-04T00:15:27.993Z,21.80
2018-08-04T00:17:57.083Z,21.80
2018-08-04T00:20:26.248Z,21.70
2018-08-04T00:22:55.490Z,21.70
2018-08-04T00:25:24.735Z,21.60
2018-08-04T00:27:53.839Z,21.50
2018-08-04T00:30:23.044Z,21.50
2018-08-04T00:32:52.301Z,21.50
2018-08-04T00:35:21.454Z,21.50
2018-08-04T00:37:50.530Z,21.50
2018-08-04T00:40:19.629Z,21.40
2018-08-04T00:42:48.777Z,21.40
2018-08-04T00:45:17.985Z,21.30
2018-08-04T00:47:47.135Z,21.30
2018-08-04T00:50:16.237Z,21.30
2018-08-04T00:52:45.364Z,21.30
2018-08-04T00:55:14.489Z,21.30
2018-08-04T00:57:43.786Z,21.20
2018-08-04T01:00:12.967Z,21.30
2018-08-04T01:02:42.143Z,21.30
2018-08-04T01:05:11.314Z,21.30
2018-08-04T01:07:40.516Z,21.20
2018-08-04T01:10:09.791Z,21.20
2018-08-04T01:12:38.956Z,21.20
2018-08-04T01:15:08.119Z,21.10
2018-08-04T01:17:37.323Z,21.10
2018-08-04T01:20:06.955Z,21.10
2018-08-04T01:22:37.232Z,21.10
2018-08-04T01:25:07.766Z,21.10
2018-08-04T01:27:36.916Z,21.10
2018-08-04T01:30:06.777Z,21.20
2018-08-04T01:32:36.057Z,21.30
2018-08-04T01:35:05.173Z,21.20
2018-08-04T01:37:34.283Z,21.20
2018-08-04T01:40:03.717Z,21.30
2018-08-04T01:42:32.837Z,21.20
2018-08-04T01:45:01.978Z,21.30
2018-08-04T01:47:31.096Z,21.30
2018-08-04T01:50:00.188Z,21.30
2018-08-04T01:52:29.314Z,21.30
2018-08-04T01:54:58.431Z,21.30
2018-08-04T01:57:27.588Z,21.30
2018-08-04T01:59:56.731Z,21.30
2018-08-04T02:02:25.923Z,21.20
2018-08-04T02:04:55.128Z,21.10
2018-08-04T02:07:24.441Z,21.10
2018-08-04T02:09:53.614Z,21.10
2018-08-04T02:12:22.925Z,21.00
2018-08-04T02:14:52.233Z,21.00
2018-08-04T02:17:21.430Z,21.00
2018-08-04T02:19:50.629Z,21.00
2018-08-04T02:22:19.717Z,21.00
2018-08-04T02:24:50.046Z,21.00
2018-08-04T02:27:19.304Z,21.00
2018-08-04T02:29:48.517Z,20.90
2018-08-04T02:32:17.689Z,20.90
2018-08-04T02:34:47.073Z,20.90
2018-08-04T02:37:16.391Z,20.90
2018-08-04T02:39:45.626Z,20.90
2018-08-04T02:42:14.895Z,20.90
2018-08-04T02:44:44.036Z,20.90
2018-08-04T02:47:13.212Z,21.00
2018-08-04T02:49:42.301Z,21.00
2018-08-04T02:52:11.529Z,21.00
2018-08-04T02:54:40.685Z,21.10
2018-08-04T02:57:09.803Z,21.00
2018-08-04T02:59:38.939Z,21.00
2018-08-04T03:02:08.054Z,20.90
2018-08-04T03:04:37.171Z,20.90
2018-08-04T03:07:06.273Z,20.90
2018-08-04T03:09:35.400Z,20.80
2018-08-04T03:12:04.539Z,20.70
2018-08-04T03:14:33.661Z,20.70
2018-08-04T03:17:02.802Z,20.70
2018-08-04T03:19:31.959Z,20.80
2018-08-04T03:22:01.072Z,20.70
2018-08-04T03:24:30.300Z,20.80
2018-08-04T03:26:59.423Z,20.80
2018-08-04T03:29:28.530Z,20.70
2018-08-04T03:31:57.655Z,20.70
2018-08-04T03:34:27.000Z,20.70
2018-08-04T03:36:56.147Z,20.70
2018-08-04T03:39:25.362Z,20.70
2018-08-04T03:41:54.584Z,20.60
2018-08-04T03:44:23.784Z,20.50
2018-08-04T03:46:52.912Z,20.40
2018-08-04T03:49:22.062Z,20.40
2018-08-04T03:51:51.204Z,20.40
2018-08-04T03:54:20.341Z,20.40
2018-08-04T03:56:49.443Z,20.40
2018-08-04T03:59:18.625Z,20.40
2018-08-04T04:01:47.762Z,20.40
2018-08-04T04:04:16.997Z,20.50
2018-08-04T04:06:46.130Z,20.50
2018-08-04T04:09:15.219Z,20.50
2018-08-04T04:11:44.430Z,20.50
2018-08-04T04:14:13.609Z,20.60
2018-08-04T04:16:42.734Z,20.50
2018-08-04T04:19:11.972Z,20.60
2018-08-04T04:21:41.100Z,20.70
2018-08-04T04:24:10.228Z,20.70
2018-08-04T04:26:39.455Z,20.70
2018-08-04T04:29:08.607Z,20.70
2018-08-04T04:31:37.829Z,20.70
2018-08-04T04:34:07.332Z,20.70
2018-08-04T04:36:36.662Z,20.80
2018-08-04T04:39:09.083Z,20.80
2018-08-04T04:41:38.670Z,20.80
2018-08-04T04:44:08.303Z,20.80
2018-08-04T04:46:38.965Z,20.80
2018-08-04T04:49:10.942Z,20.70
2018-08-04T04:51:41.004Z,20.70
2018-08-04T04:54:10.311Z,20.60
2018-08-04T04:56:39.515Z,20.60
2018-08-04T04:59:08.717Z,20.60
2018-08-04T05:01:37.943Z,20.60
2018-08-04T05:04:07.316Z,20.50
2018-08-04T05:06:36.481Z,20.50
2018-08-04T05:09:08.536Z,20.50
2018-08-04T05:11:37.799Z,20.60
2018-08-04T05:14:07.019Z,20.60
2018-08-04T05:16:36.171Z,20.70
2018-08-04T05:19:05.393Z,20.80
2018-08-04T05:21:34.545Z,20.90
2018-08-04T05:24:03.781Z,20.80
2018-08-04T05:26:32.945Z,20.80
2018-08-04T05:29:02.155Z,20.90
2018-08-04T05:31:31.348Z,21.10
2018-08-04T05:34:01.613Z,21.00
2018-08-04T05:36:31.384Z,21.00
2018-08-04T05:39:00.507Z,21.10
2018-08-04T05:41:29.655Z,21.10
2018-08-04T05:43:58.857Z,21.10
2018-08-04T05:46:28.033Z,21.20
2018-08-04T05:48:57.212Z,21.30
2018-08-04T05:51:26.352Z,21.40
2018-08-04T05:53:55.526Z,21.40
2018-08-04T05:56:24.643Z,21.50
2018-08-04T05:58:54.162Z,21.50
2018-08-04T06:01:23.295Z,21.50
2018-08-04T06:03:52.517Z,21.50
2018-08-04T06:06:21.742Z,21.50
2018-08-04T06:08:50.899Z,21.50
2018-08-04T06:11:20.248Z,21.40
2018-08-04T06:13:49.527Z,21.40
2018-08-04T06:16:19.019Z,21.40
2018-08-04T06:18:48.307Z,21.50
2018-08-04T06:21:17.447Z,21.60
2018-08-04T06:23:46.595Z,21.70
2018-08-04T06:26:15.781Z,21.80
2018-08-04T06:28:44.913Z,21.90
2018-08-04T06:31:14.040Z,22.00
2018-08-04T06:33:43.164Z,22.20
2018-08-04T06:36:12.332Z,22.30
2018-08-04T06:38:41.457Z,22.40
2018-08-04T06:41:10.696Z,22.40
2018-08-04T06:43:39.791Z,22.20
2018-08-04T06:46:08.925Z,22.20
2018-08-04T06:48:38.049Z,22.00
2018-08-04T06:51:07.154Z,22.00
2018-08-04T06:53:36.448Z,22.00
2018-08-04T06:56:05.609Z,21.80
2018-08-04T06:58:34.758Z,21.80
2018-08-04T07:01:03.950Z,21.80
2018-08-04T07:03:33.102Z,21.90
2018-08-04T07:06:02.306Z,21.90
2018-08-04T07:08:31.510Z,22.10
2018-08-04T07:11:00.817Z,22.20
2018-08-04T07:13:29.972Z,22.30
2018-08-04T07:15:59.161Z,22.50
2018-08-04T07:18:28.374Z,22.70
2018-08-04T07:20:57.542Z,22.70
2018-08-04T07:23:26.684Z,22.80
2018-08-04T07:25:55.861Z,23.00
2018-08-04T07:28:25.032Z,23.20
2018-08-04T07:30:54.152Z,23.20
2018-08-04T07:33:23.424Z,23.30
2018-08-04T07:35:52.541Z,23.40
2018-08-04T07:38:21.660Z,23.40
2018-08-04T07:40:51.043Z,23.20
2018-08-04T07:43:20.187Z,23.00
2018-08-04T07:45:49.345Z,23.00
2018-08-04T07:48:18.481Z,23.00
2018-08-04T07:50:47.809Z,23.10
2018-08-04T07:53:16.927Z,23.20
2018-08-04T07:55:46.612Z,23.30
2018-08-04T07:58:15.952Z,23.40
2018-08-04T08:00:45.217Z,23.40
2018-08-04T08:03:14.645Z,23.50
2018-08-04T08:05:43.899Z,23.50
2018-08-04T08:08:13.121Z,23.50
2018-08-04T08:10:42.576Z,23.50
2018-08-04T08:13:11.889Z,23.60
2018-08-04T08:15:42.181Z,23.70
2018-08-04T08:18:11.864Z,23.80
2018-08-04T08:20:41.070Z,23.90
2018-08-04T08:23:10.252Z,23.90
2018-08-04T08:25:40.586Z,24.00
2018-08-04T08:28:10.070Z,24.00
2018-08-04T08:30:39.291Z,24.10
2018-08-04T08:33:09.496Z,24.30
2018-08-04T08:35:39.855Z,24.40
2018-08-04T08:38:09.267Z,24.40
2018-08-04T08:40:38.444Z,24.50
2018-08-04T08:43:07.678Z,24.60
2018-08-04T08:45:36.831Z,24.80
2018-08-04T08:48:05.969Z,24.70
2018-08-04T08:50:35.136Z,24.90
2018-08-04T08:53:04.298Z,25.10
2018-08-04T08:55:33.418Z,25.20
2018-08-04T08:58:02.567Z,25.10
2018-08-04T09:00:31.726Z,25.10
2018-08-04T09:03:03.146Z,25.10
2018-08-04T09:05:32.363Z,25.20
2018-08-04T09:08:01.515Z,25.20
2018-08-04T09:10:30.638Z,25.30
2018-08-04T09:12:59.890Z,25.40
2018-08-04T09:15:29.069Z,25.40
2018-08-04T09:17:58.440Z,25.50
2018-08-04T09:20:27.719Z,25.60
2018-08-04T09:22:56.857Z,25.70
2018-08-04T09:25:26.053Z,25.90
2018-08-04T09:27:55.182Z,25.80
2018-08-04T09:30:31.879Z,25.90
2018-08-04T09:33:01.021Z,25.90
2018-08-04T09:35:30.331Z,26.00
2018-08-04T09:37:59.561Z,26.00
2018-08-04T09:40:28.654Z,26.20
2018-08-04T09:42:57.804Z,26.20
2018-08-04T09:45:27.080Z,26.30
2018-08-04T09:47:56.253Z,26.20
2018-08-04T09:50:25.567Z,26.30
2018-08-04T09:52:55.040Z,26.50
2018-08-04T09:55:24.304Z,26.50
2018-08-04T09:57:53.572Z,26.40
2018-08-04T10:00:31.803Z,26.30
2018-08-04T10:03:01.286Z,26.50
2018-08-04T10:05:30.572Z,26.60
2018-08-04T10:07:59.850Z,26.60
2018-08-04T10:10:29.111Z,26.70
2018-08-04T10:12:58.433Z,26.80
2018-08-04T10:15:27.699Z,26.80
2018-08-04T10:17:56.975Z,26.80
2018-08-04T10:20:26.180Z,26.90
2018-08-04T10:22:55.922Z,27.00
2018-08-04T10:25:25.133Z,27.10
2018-08-04T10:27:54.230Z,27.10
2018-08-04T10:30:23.439Z,27.20
2018-08-04T10:32:52.599Z,27.30
2018-08-04T10:35:21.714Z,27.40
2018-08-04T10:37:50.882Z,27.40
2018-08-04T10:40:20.011Z,27.30
2018-08-04T10:42:49.152Z,27.30
2018-08-04T10:45:18.309Z,27.50
2018-08-04T10:47:47.606Z,27.70
2018-08-04T10:50:16.811Z,27.70
2018-08-04T10:52:45.949Z,27.80
2018-08-04T10:55:15.144Z,27.50
2018-08-04T10:57:44.318Z,27.40
2018-08-04T11:00:14.612Z,27.50
2018-08-04T11:02:44.731Z,27.60
2018-08-04T11:05:14.204Z,27.40
2018-08-04T11:07:43.568Z,27.50
2018-08-04T11:10:12.995Z,27.60
2018-08-04T11:12:42.141Z,27.60
2018-08-04T11:15:11.464Z,27.60
2018-08-04T11:17:40.872Z,27.90
2018-08-04T11:20:10.066Z,28.00
2018-08-04T11:22:39.395Z,28.10
2018-08-04T11:25:08.805Z,28.20
2018-08-04T11:27:38.171Z,28.20
2018-08-04T11:30:09.682Z,28.30
2018-08-04T11:32:38.833Z,28.30
2018-08-04T11:35:08.074Z,28.40
2018-08-04T11:37:37.400Z,28.40
2018-08-04T11:40:06.560Z,28.40
2018-08-04T11:42:36.426Z,28.70
2018-08-04T11:45:06.099Z,28.60
2018-08-04T11:47:35.323Z,28.60
2018-08-04T11:50:04.653Z,28.70
2018-08-04T11:52:33.783Z,28.70
2018-08-04T11:55:03.006Z,28.70
2018-08-04T11:57:32.198Z,28.60
2018-08-04T12:00:01.413Z,28.60
2018-08-04T12:02:30.670Z,28.50
2018-08-04T12:05:00.177Z,28.50
2018-08-04T12:07:29.559Z,28.70
2018-08-04T12:09:58.789Z,28.50
2018-08-04T12:12:27.952Z,28.60
2018-08-04T12:14:57.115Z,28.60
2018-08-04T12:17:26.298Z,28.80
2018-08-04T12:19:55.614Z,29.00
2018-08-04T12:22:24.876Z,28.90
2018-08-04T12:24:54.676Z,28.70
2018-08-04T12:27:23.950Z,28.70
2018-08-04T12:29:53.789Z,28.80
2018-08-04T12:32:23.460Z,28.90
2018-08-04T12:34:53.180Z,28.80
2018-08-04T12:37:22.719Z,28.80
2018-08-04T12:39:52.443Z,28.90
2018-08-04T12:42:21.725Z,28.80
2018-08-04T12:44:50.980Z,28.60
2018-08-04T12:47:20.277Z,28.50
2018-08-04T12:49:49.613Z,28.60
2018-08-04T12:52:18.891Z,28.60
2018-08-04T12:54:48.052Z,28.40
2018-08-04T12:57:17.209Z,28.30
2018-08-04T12:59:46.406Z,28.30
2018-08-04T13:02:15.596Z,28.40
2018-08-04T13:04:44.816Z,28.60
2018-08-04T13:07:13.959Z,28.40
2018-08-04T13:09:43.090Z,28.20
2018-08-04T13:12:12.248Z,28.10
2018-08-04T13:14:41.374Z,28.00
2018-08-04T13:17:10.598Z,28.00
2018-08-04T13:19:39.758Z,27.90
2018-08-04T13:22:08.918Z,27.90
2018-08-04T13:24:38.101Z,28.00
2018-08-04T13:27:07.484Z,28.20
2018-08-04T13:29:36.692Z,28.40
2018-08-04T13:32:05.800Z,28.70
2018-08-04T13:34:34.996Z,28.70
2018-08-04T13:37:05.036Z,28.70
2018-08-04T13:39:34.129Z,28.70
2018-08-04T13:42:03.372Z,28.60
2018-08-04T13:44:32.812Z,28.50
2018-08-04T13:47:02.095Z,28.40
2018-08-04T13:49:31.464Z,28.30
2018-08-04T13:52:00.643Z,28.50
2018-08-04T13:54:29.755Z,28.70
2018-08-04T13:56:58.894Z,28.90
2018-08-04T13:59:28.016Z,29.10
2018-08-04T14:01:57.150Z,29.10
2018-08-04T14:04:26.309Z,29.20
2018-08-04T14:06:55.402Z,29.20
2018-08-04T14:09:24.506Z,29.20
2018-08-04T14:11:53.656Z,29.20
2018-08-04T14:14:22.817Z,29.30
2018-08-04T14:16:52.019Z,29.30
2018-08-04T14:19:21.920Z,29.30
2018-08-04T14:21:51.026Z,29.10
2018-08-04T14:24:20.315Z,29.00
2018-08-04T14:26:49.616Z,29.20
2018-08-04T14:29:18.749Z,29.30
2018-08-04T14:31:48.015Z,29.20
2018-08-04T14:34:17.215Z,28.80
2018-08-04T14:36:46.427Z,28.70
2018-08-04T14:39:15.499Z,28.90
2018-08-04T14:41:45.038Z,29.00
2018-08-04T14:44:14.164Z,29.10
2018-08-04T14:46:43.344Z,29.00
2018-08-04T14:49:12.639Z,28.80
2018-08-04T14:51:41.904Z,28.80
2018-08-04T14:54:11.090Z,28.80
2018-08-04T14:56:40.265Z,28.80
2018-08-04T14:59:09.466Z,28.80
2018-08-04T15:01:38.690Z,28.90
2018-08-04T15:04:07.848Z,28.90
2018-08-04T15:06:37.065Z,28.80
2018-08-04T15:09:09.800Z,28.70
2018-08-04T15:11:39.367Z,28.50
2018-08-04T15:14:09.027Z,28.50
2018-08-04T15:16:38.242Z,28.70
2018-08-04T15:19:07.452Z,28.60
2018-08-04T15:21:36.728Z,28.60
2018-08-04T15:24:06.690Z,28.70
2018-08-04T15:26:35.859Z,28.60
2018-08-04T15:29:05.181Z,28.60
2018-08-04T15:31:34.312Z,28.70
2018-08-04T15:34:03.487Z,28.50
2018-08-04T15:36:32.608Z,28.50
2018-08-04T15:39:02.794Z,28.40
2018-08-04T15:41:31.912Z,28.00
2018-08-04T15:44:01.016Z,28.10
2018-08-04T15:46:30.183Z,28.10
2018-08-04T15:48:59.359Z,28.30
2018-08-04T15:51:28.563Z,28.40
2018-08-04T15:53:57.736Z,28.30
2018-08-04T15:56:26.976Z,28.30
2018-08-04T15:58:56.269Z,28.20
2018-08-04T16:01:25.686Z,28.30
2018-08-04T16:03:55.282Z,28.30
2018-08-04T16:06:24.500Z,28.40
2018-08-04T16:08:53.768Z,28.30
2018-08-04T16:11:22.975Z,28.30
2018-08-04T16:13:52.207Z,28.40
2018-08-04T16:16:21.465Z,28.40
2018-08-04T16:18:50.651Z,28.10
2018-08-04T16:21:20.017Z,28.00
2018-08-04T16:23:49.845Z,27.90
2018-08-04T16:26:18.963Z,27.90
2018-08-04T16:28:48.171Z,27.70
2018-08-04T16:31:17.365Z,27.70
2018-08-04T16:33:47.011Z,27.70
2018-08-04T16:36:16.163Z,27.60
2018-08-04T16:38:45.254Z,27.60
2018-08-04T16:41:14.500Z,27.60
2018-08-04T16:43:43.692Z,27.60
2018-08-04T16:46:13.174Z,27.60
2018-08-04T16:48:42.356Z,27.40
2018-08-04T16:51:11.461Z,27.30
2018-08-04T16:53:40.591Z,27.10
2018-08-04T16:56:09.956Z,27.00
2018-08-04T16:58:39.211Z,26.80
2018-08-04T17:01:08.390Z,26.80
2018-08-04T17:03:37.637Z,26.70
2018-08-04T17:06:06.806Z,26.70
2018-08-04T17:08:36.260Z,26.50
2018-08-04T17:11:05.563Z,26.60
2018-08-04T17:13:34.788Z,26.50
2018-08-04T17:16:03.966Z,26.40
2018-08-04T17:18:34.030Z,26.30
2018-08-04T17:21:03.218Z,26.20
2018-08-04T17:23:32.482Z,26.10
2018-08-04T17:26:01.727Z,26.10
2018-08-04T17:28:30.838Z,25.90
2018-08-04T17:31:00.001Z,25.80
2018-08-04T17:33:29.162Z,25.70
2018-08-04T17:35:58.356Z,25.70
2018-08-04T17:38:29.256Z,25.60
2018-08-04T17:40:58.544Z,25.60
2018-08-04T17:43:27.728Z,25.50
2018-08-04T17:45:56.866Z,25.40
2018-08-04T17:48:26.089Z,25.30
2018-08-04T17:50:55.259Z,25.30
2018-08-04T17:53:24.397Z,25.10
2018-08-04T17:55:53.547Z,25.10
2018-08-04T17:58:22.700Z,25.10
2018-08-04T18:00:51.908Z,25.00
2018-08-04T18:03:21.077Z,24.90
2018-08-04T18:05:50.226Z,24.90
2018-08-04T18:08:19.393Z,25.00
2018-08-04T18:10:48.912Z,24.80
2018-08-04T18:13:18.125Z,24.70
2018-08-04T18:15:47.608Z,24.60
2018-08-04T18:18:17.546Z,24.60
2018-08-04T18:20:47.023Z,24.60
2018-08-04T18:23:16.315Z,24.50
2018-08-04T18:25:45.615Z,24.40
2018-08-04T18:28:14.883Z,24.40
2018-08-04T18:30:44.759Z,24.40
2018-08-04T18:33:13.969Z,24.40
2018-08-04T18:35:43.146Z,24.30
2018-08-04T18:38:12.397Z,24.20
2018-08-04T18:40:41.645Z,24.20
2018-08-04T18:43:11.091Z,24.10
2018-08-04T18:45:40.299Z,24.20
2018-08-04T18:48:09.462Z,24.10
2018-08-04T18:50:38.652Z,24.00
2018-08-04T18:53:07.829Z,23.80
2018-08-04T18:55:37.104Z,23.70
2018-08-04T18:58:06.384Z,23.70
2018-08-04T19:00:35.698Z,23.60
2018-08-04T19:03:04.941Z,23.50
2018-08-04T19:05:34.171Z,23.50
2018-08-04T19:08:03.392Z,23.40
2018-08-04T19:10:32.623Z,23.40
2018-08-04T19:13:01.777Z,23.40
2018-08-04T19:15:31.049Z,23.40
2018-08-04T19:18:00.240Z,23.30
2018-08-04T19:20:29.616Z,23.30
2018-08-04T19:22:59.130Z,23.20
2018-08-04T19:25:28.582Z,23.20
2018-08-04T19:27:57.893Z,23.20
2018-08-04T19:30:27.247Z,23.10
2018-08-04T19:32:56.708Z,23.10
2018-08-04T19:35:26.056Z,23.00
2018-08-04T19:37:56.249Z,23.00
2018-08-04T19:40:25.565Z,23.00
2018-08-04T19:42:55.058Z,22.90
2018-08-04T19:45:24.320Z,22.90
2018-08-04T19:47:53.501Z,22.80
2018-08-04T19:50:22.661Z,22.80
2018-08-04T19:52:52.056Z,22.70
2018-08-04T19:55:21.212Z,22.70
2018-08-04T19:57:53.472Z,22.60
2018-08-04T20:00:22.850Z,22.60
2018-08-04T20:02:52.049Z,22.50
2018-08-04T20:05:21.301Z,22.50
2018-08-04T20:07:50.493Z,22.40
2018-08-04T20:10:19.762Z,22.40
2018-08-04T20:12:48.966Z,22.30
2018-08-04T20:15:18.226Z,22.30
2018-08-04T20:17:47.752Z,22.30
2018-08-04T20:20:16.929Z,22.20
2018-08-04T20:22:46.104Z,22.10
2018-08-04T20:25:15.340Z,22.10
2018-08-04T20:27:45.204Z,22.10
2018-08-04T20:30:14.342Z,22.10
2018-08-04T20:32:43.513Z,22.10
2018-08-04T20:35:12.765Z,22.00
2018-08-04T20:37:42.164Z,22.00
2018-08-04T20:40:11.592Z,22.00
2018-08-04T20:42:40.854Z,21.90
2018-08-04T20:45:10.083Z,21.90
2018-08-04T20:47:39.253Z,21.80
2018-08-04T20:50:08.471Z,21.80
2018-08-04T20:52:37.658Z,21.70
2018-08-04T20:55:07.724Z,21.80
2018-08-04T20:57:36.907Z,21.70
2018-08-04T21:00:06.329Z,21.60
2018-08-04T21:02:35.522Z,21.50
2018-08-04T21:05:04.741Z,21.50
2018-08-04T21:07:33.961Z,21.40
2018-08-04T21:10:03.285Z,21.30
2018-08-04T21:12:32.563Z,21.30
2018-08-04T21:15:01.712Z,21.30
2018-08-04T21:17:30.900Z,21.30
2018-08-04T21:20:00.208Z,21.30
2018-08-04T21:22:29.366Z,21.20
2018-08-04T21:24:58.519Z,21.20
2018-08-04T21:27:27.659Z,21.10
2018-08-04T21:29:56.825Z,21.10
2018-08-04T21:32:25.969Z,21.00
2018-08-04T21:34:55.151Z,21.00
2018-08-04T21:37:25.977Z,21.00
2018-08-04T21:39:55.183Z,20.90
2018-08-04T21:42:24.270Z,20.90
2018-08-04T21:44:53.668Z,20.90
2018-08-04T21:47:22.788Z,20.90
2018-08-04T21:49:52.061Z,20.90
2018-08-04T21:52:21.241Z,20.80
2018-08-04T21:54:50.463Z,20.80
2018-08-04T21:57:19.598Z,20.70
2018-08-04T21:59:48.808Z,20.70
2018-08-04T22:02:17.985Z,20.70
2018-08-04T22:04:47.156Z,20.60
2018-08-04T22:07:58.236Z,20.60
2018-08-04T22:10:27.410Z,20.60
2018-08-04T22:12:56.767Z,20.50
2018-08-04T22:15:25.932Z,20.50
2018-08-04T22:17:55.289Z,20.50
2018-08-04T22:20:24.967Z,20.40
2018-08-04T22:22:54.131Z,20.40
2018-08-04T22:25:25.385Z,20.40
2018-08-04T22:27:55.011Z,20.40
2018-08-04T22:30:24.559Z,20.30
2018-08-04T22:32:53.997Z,20.30
2018-08-04T22:35:23.555Z,20.30
2018-08-04T22:37:52.633Z,20.20
2018-08-04T22:40:22.205Z,20.20
2018-08-04T22:42:51.332Z,20.10
2018-08-04T22:46:23.491Z,20.10
2018-08-04T22:48:53.630Z,20.10
2018-08-04T22:51:26.622Z,20.10
2018-08-04T22:53:55.957Z,20.10
2018-08-04T22:56:25.358Z,20.00
2018-08-04T22:58:54.559Z,20.00
2018-08-04T23:01:23.766Z,19.90
2018-08-04T23:03:52.935Z,20.00
2018-08-04T23:06:22.069Z,19.90
2018-08-04T23:08:51.221Z,19.90
2018-08-04T23:11:20.381Z,19.80
2018-08-04T23:13:49.592Z,19.80
2018-08-04T23:16:18.751Z,19.80
2018-08-04T23:18:48.540Z,19.80
2018-08-04T23:21:17.696Z,19.70
2018-08-04T23:23:46.853Z,19.70
2018-08-04T23:26:15.991Z,19.70
2018-08-04T23:28:45.142Z,19.70
2018-08-04T23:31:14.305Z,19.70
2018-08-04T23:33:43.533Z,19.70
2018-08-04T23:36:12.657Z,19.70
2018-08-04T23:38:41.827Z,19.60
2018-08-04T23:41:10.931Z,19.50
2018-08-04T23:43:40.348Z,19.50
2018-08-04T23:46:09.511Z,19.50
2018-08-04T23:48:38.673Z,19.50
2018-08-04T23:51:07.963Z,19.40
2018-08-04T23:53:37.159Z,19.50
2018-08-04T23:56:06.359Z,19.40
2018-08-04T23:58:35.471Z,19.40
